Time;durP1;ratioP1;P1;durP2;ratioP2;P2;SDS_P1;SDS_P2;PMS_P1;PMS_P2;Temp;Humidity;BMP_temperature;BMP_pressure;BME280_temperature;BME280_humidity;BME280_pressure;Samples;Min_cycle;Max_cycle;Signal;HPM_P1;HPM_P2
2022/06/27 00:02:39;;;;;;;4.00;0.90;;;13.50;99.90;;;;;;5091059;28;20043;-57
2022/06/27 00:05:09;;;;;;;5.00;1.10;;;13.60;99.90;;;;;;5090184;28;20055;-58
2022/06/27 00:07:37;;;;;;;8.05;0.90;;;13.50;99.90;;;;;;5095004;28;20040;-57
2022/06/27 00:10:06;;;;;;;2.03;0.50;;;13.60;99.90;;;;;;5111310;28;20047;-58
2022/06/27 00:12:34;;;;;;;4.57;1.10;;;13.60;99.90;;;;;;5110007;28;20044;-58
2022/06/27 00:15:03;;;;;;;6.53;1.02;;;13.60;99.90;;;;;;5110954;28;20052;-58
2022/06/27 00:17:31;;;;;;;7.15;0.80;;;13.60;99.90;;;;;;5110502;28;20040;-58
2022/06/27 00:19:59;;;;;;;3.47;0.68;;;13.60;99.90;;;;;;5097471;28;20513;-58
2022/06/27 00:22:27;;;;;;;6.72;0.73;;;13.60;99.90;;;;;;5103426;28;20494;-58
2022/06/27 00:24:55;;;;;;;5.78;0.60;;;13.60;99.90;;;;;;5110008;28;20047;-58
2022/06/27 00:27:22;;;;;;;3.85;0.70;;;13.60;99.90;;;;;;5110572;28;20056;-58
2022/06/27 00:29:50;;;;;;;5.47;1.40;;;13.60;99.90;;;;;;5092193;28;20047;-57
2022/06/27 00:32:18;;;;;;;4.53;1.02;;;13.60;99.90;;;;;;5089365;28;20059;-58
2022/06/27 00:34:45;;;;;;;4.88;0.80;;;13.60;99.90;;;;;;5094132;28;20047;-59
2022/06/27 00:37:13;;;;;;;5.28;0.70;;;13.60;99.90;;;;;;5099758;28;20050;-60
2022/06/27 00:39:41;;;;;;;5.00;0.93;;;13.60;99.90;;;;;;5106476;28;20482;-57
2022/06/27 00:42:08;;;;;;;9.35;1.13;;;13.60;99.90;;;;;;5108788;28;20394;-57
2022/06/27 00:44:42;;;;;;;3.03;0.85;;;13.60;99.90;;;;;;5106898;28;20064;-57
2022/06/27 00:47:12;;;;;;;7.35;0.70;;;13.60;99.90;;;;;;5109618;28;20479;-58
2022/06/27 00:49:40;;;;;;;1.85;0.52;;;13.50;99.90;;;;;;5093278;28;20055;-59
2022/06/27 00:52:11;;;;;;;2.63;0.65;;;13.50;99.90;;;;;;5090752;28;20495;-58
2022/06/27 00:54:41;;;;;;;3.80;0.75;;;13.50;99.90;;;;;;5090252;28;20063;-57
2022/06/27 00:57:12;;;;;;;7.63;0.70;;;13.50;99.90;;;;;;5106968;28;20479;-57
2022/06/27 00:59:40;;;;;;;3.92;0.80;;;13.50;99.90;;;;;;5092790;28;20056;-57
2022/06/27 01:02:08;;;;;;;4.88;0.70;;;13.50;99.90;;;;;;5104774;28;20059;-56
2022/06/27 01:04:36;;;;;;;6.60;0.75;;;13.50;99.90;;;;;;5107158;28;20047;-57
2022/06/27 01:07:08;;;;;;;5.13;0.60;;;13.50;99.90;;;;;;5103486;28;20039;-58
2022/06/27 01:09:43;;;;;;;5.55;0.80;;;13.50;99.90;;;;;;5096208;28;20039;-57
2022/06/27 01:12:11;;;;;;;4.72;0.63;;;13.40;99.90;;;;;;5108300;28;20039;-58
2022/06/27 01:14:39;;;;;;;4.13;0.82;;;13.50;99.90;;;;;;5107721;28;20047;-56
2022/06/27 01:17:09;;;;;;;1.90;0.45;;;13.50;99.90;;;;;;5109019;28;20047;-57
2022/06/27 01:19:37;;;;;;;5.18;0.68;;;13.40;99.90;;;;;;5092503;28;20059;-57
2022/06/27 01:22:09;;;;;;;5.57;0.73;;;13.40;99.90;;;;;;5089910;28;20400;-57
2022/06/27 01:24:37;;;;;;;3.90;1.25;;;13.30;99.90;;;;;;5088869;28;20082;-56
2022/06/27 01:27:07;;;;;;;7.15;0.95;;;13.30;99.90;;;;;;5104921;28;20043;-55
2022/06/27 01:29:35;;;;;;;6.82;0.80;;;13.30;99.90;;;;;;5092621;28;20044;-55
2022/06/27 01:32:05;;;;;;;3.67;0.55;;;13.30;99.90;;;;;;5101275;28;20044;-57
2022/06/27 01:34:34;;;;;;;4.85;0.70;;;13.30;99.90;;;;;;5073437;28;20055;-56
2022/06/27 01:37:03;;;;;;;5.43;0.55;;;13.30;99.90;;;;;;5090192;28;20044;-57
2022/06/27 01:39:35;;;;;;;8.40;0.70;;;13.30;99.90;;;;;;5089072;28;20418;-58
2022/06/27 01:42:04;;;;;;;2.05;0.45;;;13.30;99.90;;;;;;5109777;28;20509;-57
2022/06/27 01:44:34;;;;;;;4.90;1.40;;;13.30;99.90;;;;;;5110468;28;20471;-58
2022/06/27 01:47:08;;;;;;;3.45;1.10;;;13.30;99.90;;;;;;5107195;28;20044;-56
2022/06/27 01:49:47;;;;;;;2.63;0.63;;;13.30;99.90;;;;;;5108711;28;20114;-55
2022/06/27 01:52:16;;;;;;;6.65;0.60;;;13.30;99.90;;;;;;5110467;28;20039;-56
2022/06/27 01:54:50;;;;;;;3.00;0.70;;;13.30;99.90;;;;;;5109868;28;20059;-56
2022/06/27 01:57:17;;;;;;;3.60;0.80;;;13.30;99.90;;;;;;5110669;28;20490;-56
2022/06/27 01:59:50;;;;;;;1.88;0.38;;;13.30;99.90;;;;;;5107181;28;20046;-55
2022/06/27 02:02:19;;;;;;;4.05;0.90;;;13.30;99.90;;;;;;5109359;28;20051;-55
2022/06/27 02:04:48;;;;;;;7.40;0.65;;;13.30;99.90;;;;;;5110476;28;20070;-56
2022/06/27 02:07:17;;;;;;;5.00;0.47;;;13.30;99.90;;;;;;5110006;28;20040;-55
2022/06/27 02:09:45;;;;;;;5.03;0.73;;;13.30;99.90;;;;;;5110343;28;20059;-56
2022/06/27 02:12:18;;;;;;;2.63;0.40;;;13.30;99.90;;;;;;5109519;28;20043;-55
2022/06/27 02:14:52;;;;;;;5.63;0.85;;;13.30;99.90;;;;;;5069756;28;20059;-55
2022/06/27 02:17:30;;;;;;;3.72;0.60;;;13.30;99.90;;;;;;5069844;28;20032;-55
2022/06/27 02:19:59;;;;;;;5.97;0.45;;;13.20;99.90;;;;;;5069785;28;20051;-57
2022/06/27 02:22:29;;;;;;;3.92;0.50;;;13.20;99.90;;;;;;5069109;28;20045;-58
2022/06/27 02:24:56;;;;;;;4.25;0.60;;;13.20;99.90;;;;;;5056045;28;20480;-58
2022/06/27 02:27:24;;;;;;;5.82;0.68;;;13.20;99.90;;;;;;5073254;28;20048;-58
2022/06/27 02:29:52;;;;;;;1.85;0.50;;;13.20;99.90;;;;;;5073036;28;20044;-58
2022/06/27 02:32:20;;;;;;;3.60;0.90;;;13.20;99.90;;;;;;5073815;28;20480;-58
2022/06/27 02:34:50;;;;;;;3.00;0.77;;;13.20;99.90;;;;;;5074129;28;20400;-57
2022/06/27 02:37:18;;;;;;;2.55;0.50;;;13.20;99.90;;;;;;5072934;28;20040;-58
2022/06/27 02:39:48;;;;;;;9.00;0.70;;;13.10;99.90;;;;;;5072903;28;20495;-58
2022/06/27 02:42:20;;;;;;;4.78;0.90;;;13.10;99.90;;;;;;5073040;28;20067;-57
2022/06/27 02:44:48;;;;;;;8.25;0.98;;;13.10;99.90;;;;;;5073984;28;20052;-56
2022/06/27 02:47:23;;;;;;;9.48;2.55;;;13.10;99.90;;;;;;5072203;28;20051;-57
2022/06/27 02:49:50;;;;;;;2.72;0.90;;;13.10;99.90;;;;;;5072248;28;20048;-57
2022/06/27 02:52:30;;;;;;;3.72;1.83;;;13.10;99.90;;;;;;5071893;28;20041;-56
2022/06/27 02:55:12;;;;;;;3.60;0.90;;;13.10;99.90;;;;;;5071292;28;20048;-55
2022/06/27 02:57:59;;;;;;;8.25;0.90;;;13.10;99.90;;;;;;5075580;28;20063;-57
2022/06/27 03:00:29;;;;;;;10.70;1.38;;;13.10;99.90;;;;;;5071983;28;20049;-57
2022/06/27 03:02:59;;;;;;;7.85;1.67;;;13.00;99.90;;;;;;5072379;28;20044;-58
2022/06/27 03:05:34;;;;;;;6.57;1.02;;;13.10;99.90;;;;;;5056701;28;20045;-57
2022/06/27 03:08:02;;;;;;;11.95;1.50;;;13.10;99.90;;;;;;5072534;28;20056;-56
2022/06/27 03:10:30;;;;;;;9.80;1.20;;;13.10;99.90;;;;;;5072139;28;20055;-57
2022/06/27 03:12:58;;;;;;;9.52;1.95;;;13.00;99.90;;;;;;5083727;28;20571;-57
2022/06/27 03:15:26;;;;;;;7.07;1.40;;;13.00;99.90;;;;;;5113049;28;20052;-58
2022/06/27 03:17:55;;;;;;;6.53;1.45;;;13.00;99.90;;;;;;5112716;28;20043;-57
2022/06/27 03:20:29;;;;;;;9.50;1.40;;;13.00;99.90;;;;;;5112997;28;20097;-58
2022/06/27 03:23:18;;;;;;;;;;;13.00;99.90;;;;;;5113207;28;20046;-58
2022/06/27 03:25:55;;;;;;;6.70;1.38;;;13.00;99.90;;;;;;5111574;28;20287;-57
2022/06/27 03:28:27;;;;;;;8.63;2.30;;;13.00;99.90;;;;;;5112684;28;20042;-57
2022/06/27 03:30:58;;;;;;;9.38;1.80;;;13.00;99.90;;;;;;5111016;28;20082;-58
2022/06/27 03:33:26;;;;;;;10.15;1.67;;;13.00;99.90;;;;;;5112027;28;20047;-58
2022/06/27 03:36:08;;;;;;;11.40;1.70;;;12.90;99.90;;;;;;5112271;28;20052;-58
2022/06/27 03:38:36;;;;;;;10.45;1.65;;;12.90;99.90;;;;;;5110511;28;20040;-60
2022/06/27 03:41:04;;;;;;;5.82;1.23;;;12.90;99.90;;;;;;5111187;28;20066;-57
2022/06/27 03:43:31;;;;;;;9.18;1.35;;;12.90;99.90;;;;;;5110486;28;20035;-57
2022/06/27 03:45:59;;;;;;;14.00;1.85;;;12.80;99.90;;;;;;5112040;28;20053;-55
2022/06/27 03:51:52;;;;;;;8.07;1.45;;;12.80;99.90;;;;;;5029956;28;20046;-54
2022/06/27 03:54:20;;;;;;;12.75;2.50;;;12.80;99.90;;;;;;5016701;28;20053;-56
2022/06/27 03:56:48;;;;;;;16.23;2.67;;;12.80;99.90;;;;;;5067088;28;20059;-56
2022/06/27 03:59:16;;;;;;;10.93;1.98;;;12.80;99.90;;;;;;5091700;28;20044;-56
2022/06/27 04:01:45;;;;;;;6.47;1.95;;;12.80;99.90;;;;;;5092772;28;20419;-55
2022/06/27 04:04:13;;;;;;;17.67;1.77;;;12.80;99.90;;;;;;5092747;28;20556;-55
2022/06/27 04:06:42;;;;;;;14.47;1.90;;;12.80;99.90;;;;;;5100030;28;20415;-55
2022/06/27 04:09:11;;;;;;;20.95;2.95;;;12.80;99.90;;;;;;5110946;28;20066;-55
2022/06/27 04:11:39;;;;;;;6.85;1.75;;;12.80;99.90;;;;;;5110916;28;20055;-54
2022/06/27 04:14:11;;;;;;;13.05;1.50;;;12.80;99.90;;;;;;5109832;28;20040;-55
2022/06/27 04:16:42;;;;;;;12.40;1.67;;;12.80;99.90;;;;;;5112099;28;20039;-55
2022/06/27 04:19:28;;;;;;;14.13;3.20;;;12.80;99.90;;;;;;5113009;28;20032;-55
2022/06/27 04:22:15;;;;;;;8.02;1.77;;;12.80;99.90;;;;;;5111739;28;20050;-55
2022/06/27 04:24:58;;;;;;;11.27;1.50;;;12.70;99.90;;;;;;5111241;28;20043;-55
2022/06/27 04:27:42;;;;;;;7.95;1.20;;;12.70;99.90;;;;;;5110172;28;20044;-55
2022/06/27 04:30:16;;;;;;;16.75;1.60;;;12.70;99.90;;;;;;5109376;28;20399;-55
2022/06/27 04:32:48;;;;;;;4.20;1.23;;;12.70;99.90;;;;;;5111499;28;20509;-55
2022/06/27 04:35:16;;;;;;;7.72;1.52;;;12.70;99.90;;;;;;5111441;28;20048;-55
2022/06/27 04:37:44;;;;;;;8.77;1.83;;;12.80;99.90;;;;;;5111272;28;20058;-55
2022/06/27 04:40:43;;;;;;;10.82;1.60;;;12.80;99.90;;;;;;5111295;28;20043;-55
2022/06/27 04:43:12;;;;;;;6.57;1.05;;;12.70;99.90;;;;;;5111238;28;20035;-55
2022/06/27 04:45:40;;;;;;;9.55;1.60;;;12.70;99.90;;;;;;5094299;28;20036;-55
2022/06/27 04:48:34;;;;;;;8.00;1.48;;;12.70;99.90;;;;;;5096607;28;20040;-55
2022/06/27 04:51:03;;;;;;;6.07;1.45;;;12.70;99.90;;;;;;5087587;28;20047;-58
2022/06/27 04:53:32;;;;;;;12.65;1.38;;;12.70;99.90;;;;;;5087157;28;20059;-56
2022/06/27 04:56:00;;;;;;;7.10;1.17;;;12.70;99.90;;;;;;5095045;28;20047;-55
2022/06/27 04:58:28;;;;;;;11.80;1.73;;;12.70;99.90;;;;;;5095407;28;20047;-58
2022/06/27 05:00:59;;;;;;;7.65;1.48;;;12.60;99.90;;;;;;5087377;28;20262;-57
2022/06/27 05:03:39;;;;;;;7.43;1.58;;;12.60;99.90;;;;;;5099138;28;20076;-58
2022/06/27 05:06:15;;;;;;;15.52;2.00;;;12.60;99.90;;;;;;5104260;28;20042;-57
2022/06/27 05:08:44;;;;;;;11.82;1.58;;;12.50;99.90;;;;;;5092175;28;20431;-56
2022/06/27 05:11:14;;;;;;;10.07;1.60;;;12.50;99.90;;;;;;5099136;28;20054;-55
2022/06/27 05:13:42;;;;;;;7.18;1.92;;;12.50;99.90;;;;;;5108162;28;20062;-55
2022/06/27 05:16:25;;;;;;;10.95;1.83;;;12.50;99.90;;;;;;5107278;28;20035;-54
2022/06/27 05:18:54;;;;;;;9.18;1.45;;;12.50;99.90;;;;;;5103277;28;20047;-55
2022/06/27 05:21:42;;;;;;;10.30;1.67;;;12.50;99.90;;;;;;5104749;28;20047;-56
2022/06/27 05:24:11;;;;;;;9.35;1.95;;;12.50;99.90;;;;;;5105452;28;20083;-55
2022/06/27 05:26:39;;;;;;;6.28;1.30;;;12.50;99.90;;;;;;5104546;28;20046;-55
2022/06/27 05:29:07;;;;;;;5.90;1.48;;;12.50;99.90;;;;;;5089277;28;20044;-55
2022/06/27 05:31:34;;;;;;;7.97;1.45;;;12.60;99.90;;;;;;5088795;28;20063;-56
2022/06/27 05:34:03;;;;;;;11.90;2.08;;;12.60;99.90;;;;;;5104596;28;20032;-57
2022/06/27 05:36:31;;;;;;;11.20;1.65;;;12.60;99.90;;;;;;5089617;28;20055;-56
2022/06/27 05:38:59;;;;;;;10.02;1.77;;;12.60;99.90;;;;;;5092222;28;20051;-57
2022/06/27 05:41:27;;;;;;;10.50;1.77;;;12.60;99.90;;;;;;5106355;28;20047;-57
2022/06/27 05:44:01;;;;;;;9.45;1.85;;;12.70;99.90;;;;;;5085338;28;20521;-56
2022/06/27 05:46:29;;;;;;;6.95;1.40;;;12.60;99.90;;;;;;5104516;28;20054;-57
2022/06/27 05:49:26;;;;;;;20.65;2.20;;;12.70;99.90;;;;;;5075508;28;20535;-57
2022/06/27 05:51:59;;;;;;;7.70;1.23;;;12.70;99.90;;;;;;5085271;28;20049;-57
2022/06/27 05:54:28;;;;;;;4.28;1.25;;;12.80;99.90;;;;;;5085630;28;20044;-57
2022/06/27 05:56:56;;;;;;;4.38;1.10;;;12.80;99.90;;;;;;5099960;28;20043;-57
2022/06/27 05:59:25;;;;;;;6.07;1.90;;;12.80;99.90;;;;;;5109288;28;20052;-57
2022/06/27 06:01:56;;;;;;;;;;;12.80;99.90;;;;;;5107725;28;20047;-57
2022/06/27 06:04:25;;;;;;;7.32;2.08;;;12.80;99.90;;;;;;5095729;28;20407;-56
2022/06/27 06:06:54;;;;;;;8.07;1.50;;;12.90;99.90;;;;;;5105563;28;20435;-56
2022/06/27 06:09:23;;;;;;;7.63;1.45;;;12.90;99.90;;;;;;5093310;28;20588;-58
2022/06/27 06:11:51;;;;;;;8.43;1.45;;;13.00;99.90;;;;;;5098724;28;20067;-57
2022/06/27 06:14:21;;;;;;;8.65;2.17;;;13.00;99.90;;;;;;5092115;28;20059;-58
2022/06/27 06:16:51;;;;;;;5.53;1.05;;;13.00;99.90;;;;;;5100696;28;20043;-57
2022/06/27 06:19:19;;;;;;;4.82;1.20;;;13.10;99.90;;;;;;5093327;28;20506;-57
2022/06/27 06:21:47;;;;;;;6.93;1.90;;;13.10;99.90;;;;;;5092864;28;20051;-57
2022/06/27 06:24:14;;;;;;;4.40;1.08;;;13.20;99.90;;;;;;5093048;28;20046;-57
2022/06/27 06:26:42;;;;;;;14.13;1.25;;;13.20;99.90;;;;;;5107132;28;20059;-57
2022/06/27 06:29:13;;;;;;;7.38;1.17;;;13.10;99.90;;;;;;5105958;28;20044;-57
2022/06/27 06:31:49;;;;;;;2.47;1.05;;;13.10;99.90;;;;;;5107002;28;20046;-56
2022/06/27 06:34:24;;;;;;;3.63;1.48;;;13.20;99.90;;;;;;5107653;28;20058;-57
2022/06/27 06:36:52;;;;;;;9.82;1.60;;;13.20;99.90;;;;;;5109041;28;20043;-57
2022/06/27 06:39:19;;;;;;;6.68;1.50;;;13.20;99.90;;;;;;5106919;28;20482;-56
2022/06/27 06:41:48;;;;;;;7.22;1.60;;;13.20;99.90;;;;;;5100777;28;20062;-55
2022/06/27 06:44:18;;;;;;;10.25;1.70;;;13.30;99.90;;;;;;5105624;27;20047;-55
2022/06/27 06:46:46;;;;;;;5.88;1.60;;;13.30;99.90;;;;;;5104476;28;20505;-55
2022/06/27 06:49:21;;;;;;;9.38;1.75;;;13.30;99.90;;;;;;5099719;28;20036;-58
2022/06/27 06:51:50;;;;;;;4.28;1.20;;;13.40;99.90;;;;;;5099835;28;20048;-57
2022/06/27 06:54:20;;;;;;;3.55;1.10;;;13.40;99.90;;;;;;5108250;28;20046;-58
2022/06/27 06:56:49;;;;;;;7.15;1.25;;;13.40;99.90;;;;;;5094151;28;20055;-58
2022/06/27 06:59:18;;;;;;;9.80;1.15;;;13.50;99.90;;;;;;5094012;28;20040;-58
2022/06/27 07:01:49;;;;;;;2.45;1.00;;;13.50;99.90;;;;;;5109592;28;20387;-56
2022/06/27 07:04:17;;;;;;;7.30;1.50;;;13.50;99.90;;;;;;5106633;28;20043;-55
2022/06/27 07:06:46;;;;;;;7.18;1.05;;;13.40;99.90;;;;;;5104661;28;20055;-56
2022/06/27 07:09:14;;;;;;;7.90;1.90;;;13.40;99.90;;;;;;5107400;28;20047;-55
2022/06/27 07:11:42;;;;;;;5.70;1.90;;;13.40;99.90;;;;;;5110481;28;20054;-55
2022/06/27 07:14:09;;;;;;;1.98;0.77;;;13.40;99.90;;;;;;5109897;28;20043;-55
2022/06/27 07:16:37;;;;;;;7.43;2.08;;;13.50;99.90;;;;;;5111470;28;20058;-55
2022/06/27 07:19:06;;;;;;;4.18;1.15;;;13.50;99.90;;;;;;5099797;28;20043;-55
2022/06/27 07:21:34;;;;;;;5.57;1.08;;;13.50;99.90;;;;;;5103187;28;20475;-57
2022/06/27 07:24:03;;;;;;;5.07;1.73;;;13.50;99.90;;;;;;5107310;28;20047;-56
2022/06/27 07:26:31;;;;;;;6.28;1.58;;;13.50;99.90;;;;;;5094498;28;20047;-57
2022/06/27 07:29:03;;;;;;;5.15;1.02;;;13.50;99.90;;;;;;5097629;28;20044;-56
2022/06/27 07:31:31;;;;;;;5.75;1.33;;;13.50;99.90;;;;;;5107708;28;20046;-55
2022/06/27 07:33:59;;;;;;;11.45;1.70;;;13.50;99.90;;;;;;5103956;28;20044;-58
2022/06/27 07:36:28;;;;;;;4.57;1.08;;;13.50;99.90;;;;;;5092589;28;20060;-57
2022/06/27 07:38:58;;;;;;;5.18;0.88;;;13.60;99.90;;;;;;5091357;28;20502;-57
2022/06/27 07:41:26;;;;;;;6.75;2.45;;;13.60;99.90;;;;;;5091664;28;20134;-57
2022/06/27 07:43:55;;;;;;;5.47;1.02;;;13.70;99.90;;;;;;5092101;28;20506;-57
2022/06/27 07:46:22;;;;;;;4.28;0.65;;;13.70;99.90;;;;;;5091324;28;20051;-57
2022/06/27 07:48:50;;;;;;;4.15;0.90;;;13.70;99.90;;;;;;5090689;28;20052;-57
2022/06/27 07:51:19;;;;;;;8.27;1.10;;;13.80;99.90;;;;;;5089909;28;20407;-58
2022/06/27 07:53:49;;;;;;;6.05;1.05;;;13.80;99.90;;;;;;5091253;28;20047;-57
2022/06/27 07:56:20;;;;;;;2.67;0.55;;;13.70;99.90;;;;;;5092029;28;20047;-57
2022/06/27 07:59:06;;;;;;;6.90;0.93;;;13.60;99.90;;;;;;5098720;28;20043;-57
2022/06/27 08:01:35;;;;;;;2.20;0.80;;;13.50;99.90;;;;;;5090490;28;20044;-58
2022/06/27 08:04:04;;;;;;;5.25;1.20;;;13.40;99.90;;;;;;5105600;28;20043;-57
2022/06/27 08:06:32;;;;;;;2.35;1.00;;;13.30;99.90;;;;;;5100904;28;20036;-57
2022/06/27 08:09:03;;;;;;;3.88;0.77;;;13.20;99.90;;;;;;5100097;28;20485;-57
2022/06/27 08:11:35;;;;;;;3.22;0.90;;;13.10;99.90;;;;;;5104260;28;20048;-56
2022/06/27 08:14:09;;;;;;;3.50;1.23;;;13.10;99.90;;;;;;5098993;28;20495;-56
2022/06/27 08:16:39;;;;;;;6.07;0.80;;;13.10;99.90;;;;;;5108659;28;20048;-55
2022/06/27 08:19:09;;;;;;;3.42;1.00;;;13.00;99.90;;;;;;5091188;28;20048;-57
2022/06/27 08:21:38;;;;;;;3.10;0.93;;;13.00;99.90;;;;;;5088575;28;20382;-58
2022/06/27 08:24:08;;;;;;;2.15;0.60;;;13.00;99.90;;;;;;5110705;28;20043;-58
2022/06/27 08:26:37;;;;;;;1.25;0.80;;;12.90;99.90;;;;;;5110304;28;20035;-58
2022/06/27 08:29:06;;;;;;;3.55;0.75;;;13.00;99.90;;;;;;5095125;28;20040;-58
2022/06/27 08:31:35;;;;;;;3.75;0.63;;;13.00;99.90;;;;;;5090770;28;20048;-57
2022/06/27 08:34:03;;;;;;;6.57;0.90;;;13.00;99.90;;;;;;5107406;28;20074;-57
2022/06/27 08:36:33;;;;;;;3.08;0.82;;;13.10;99.90;;;;;;5108822;28;20044;-58
2022/06/27 08:39:07;;;;;;;3.00;0.55;;;13.20;99.90;;;;;;5094939;28;20048;-57
2022/06/27 08:41:36;;;;;;;11.25;1.23;;;13.20;99.90;;;;;;5090218;28;20051;-57
2022/06/27 08:44:06;;;;;;;0.85;0.60;;;13.30;99.90;;;;;;5089587;28;20550;-57
2022/06/27 08:46:35;;;;;;;2.28;0.65;;;13.30;99.90;;;;;;5090129;28;20047;-57
2022/06/27 08:49:05;;;;;;;1.65;0.50;;;13.30;99.90;;;;;;5093314;28;20044;-57
2022/06/27 08:51:33;;;;;;;1.63;0.77;;;13.30;99.90;;;;;;5109909;28;20054;-58
2022/06/27 08:54:02;;;;;;;2.08;0.50;;;13.30;99.90;;;;;;5110417;28;20050;-59
2022/06/27 08:56:30;;;;;;;0.90;0.70;;;13.40;99.90;;;;;;5110449;28;20043;-57
2022/06/27 08:59:00;;;;;;;2.28;0.73;;;13.50;99.90;;;;;;5099353;28;20529;-57
2022/06/27 09:01:30;;;;;;;2.00;0.80;;;13.70;99.90;;;;;;5106140;28;20407;-58
2022/06/27 09:04:00;;;;;;;3.22;0.60;;;13.80;99.90;;;;;;5110442;28;20168;-58
2022/06/27 09:06:44;;;;;;;3.22;0.77;;;13.80;99.90;;;;;;5105981;28;20047;-58
2022/06/27 09:09:14;;;;;;;6.28;1.08;;;13.90;99.90;;;;;;5092077;28;20414;-57
2022/06/27 09:11:43;;;;;;;;;;;14.00;99.90;;;;;;5101052;28;20048;-58
2022/06/27 09:14:31;;;;;;;0.40;0.32;;;13.90;99.90;;;;;;5105911;28;19919;-59
2022/06/27 09:17:02;;;;;;;2.55;0.98;;;13.90;99.90;;;;;;5105065;28;20056;-58
2022/06/27 09:19:52;;;;;;;3.95;0.63;;;14.00;99.90;;;;;;5089233;28;20063;-57
2022/06/27 09:22:26;;;;;;;2.20;0.60;;;14.10;99.90;;;;;;5100523;28;20044;-58
2022/06/27 09:25:12;;;;;;;3.67;0.77;;;14.10;99.90;;;;;;5109533;28;20047;-58
2022/06/27 09:27:47;;;;;;;0.80;0.50;;;14.30;99.90;;;;;;5104838;28;20403;-58
2022/06/27 09:30:18;;;;;;;3.28;0.82;;;14.40;99.90;;;;;;5089833;28;20059;-59
2022/06/27 09:32:50;;;;;;;1.13;0.40;;;14.40;99.90;;;;;;5099402;28;20040;-58
2022/06/27 09:35:32;;;;;;;0.82;0.40;;;14.50;99.90;;;;;;5093837;28;20048;-57
2022/06/27 09:38:06;;;;;;;4.38;0.60;;;14.50;99.90;;;;;;5095592;28;20048;-59
2022/06/27 09:40:35;;;;;;;2.17;0.35;;;14.50;99.90;;;;;;5108770;28;20444;-58
2022/06/27 09:43:07;;;;;;;0.30;0.30;;;14.50;99.90;;;;;;5098455;28;20479;-60
2022/06/27 09:45:35;;;;;;;2.33;0.40;;;14.50;99.90;;;;;;5099626;28;20048;-57
2022/06/27 09:48:06;;;;;;;2.10;0.60;;;14.50;99.90;;;;;;5099955;28;20047;-59
2022/06/27 09:50:39;;;;;;;2.83;0.30;;;14.40;99.90;;;;;;5110011;28;20044;-57
2022/06/27 09:53:08;;;;;;;3.80;0.40;;;14.30;99.90;;;;;;5112520;28;20399;-58
2022/06/27 09:55:37;;;;;;;3.45;0.60;;;14.20;99.90;;;;;;5112981;28;20043;-57
2022/06/27 09:58:07;;;;;;;1.52;0.45;;;14.20;99.90;;;;;;5106137;28;20495;-57
2022/06/27 10:00:36;;;;;;;4.82;0.47;;;14.20;99.90;;;;;;5075315;28;20052;-57
2022/06/27 10:03:05;;;;;;;0.75;0.20;;;14.20;99.90;;;;;;5093511;28;20070;-58
2022/06/27 10:05:43;;;;;;;0.80;0.22;;;14.30;99.90;;;;;;5093341;28;20044;-57
2022/06/27 10:08:12;;;;;;;2.35;0.40;;;14.40;99.90;;;;;;5103548;28;20055;-58
2022/06/27 10:11:10;;;;;;;1.75;0.40;;;14.40;99.90;;;;;;5113535;28;20048;-58
2022/06/27 10:13:44;;;;;;;1.00;0.40;;;14.40;99.90;;;;;;5112006;28;20051;-58
2022/06/27 10:16:14;;;;;;;3.42;0.43;;;14.30;99.90;;;;;;5112910;28;20046;-58
2022/06/27 10:19:02;;;;;;;3.65;0.50;;;14.20;99.90;;;;;;5101029;28;20407;-57
2022/06/27 10:21:41;;;;;;;4.68;0.55;;;14.00;99.90;;;;;;5101182;28;20043;-55
2022/06/27 10:24:27;;;;;;;2.00;0.50;;;13.80;99.90;;;;;;5112042;28;20495;-55
2022/06/27 10:26:57;;;;;;;3.35;0.80;;;13.50;99.90;;;;;;5096850;28;20055;-55
2022/06/27 10:29:30;;;;;;;0.95;0.52;;;13.20;99.90;;;;;;5092612;28;20400;-56
2022/06/27 10:31:59;;;;;;;4.38;0.50;;;13.00;99.90;;;;;;5092691;28;20052;-55
2022/06/27 10:34:48;;;;;;;2.10;0.52;;;12.90;99.90;;;;;;5092717;28;20048;-55
2022/06/27 10:37:24;;;;;;;0.77;0.73;;;12.90;99.90;;;;;;5096086;28;20486;-58
2022/06/27 10:40:13;;;;;;;2.58;0.43;;;12.90;99.90;;;;;;5110584;28;20569;-57
2022/06/27 10:42:43;;;;;;;2.72;0.50;;;13.00;99.90;;;;;;5090771;28;20047;-59
2022/06/27 10:45:20;;;;;;;2.42;0.63;;;13.10;99.90;;;;;;5110975;28;20642;-58
2022/06/27 10:47:55;;;;;;;2.60;0.50;;;13.30;99.90;;;;;;5108479;28;20040;-58
2022/06/27 10:50:28;;;;;;;1.75;0.70;;;13.50;99.90;;;;;;5101325;28;20383;-57
2022/06/27 10:53:27;;;;;;;3.17;0.60;;;13.70;99.90;;;;;;5111782;28;20047;-57
2022/06/27 10:55:54;;;;;;;3.53;0.40;;;13.90;99.90;;;;;;5112867;28;20374;-57
2022/06/27 10:58:23;;;;;;;4.38;0.52;;;14.10;99.90;;;;;;5110460;28;20478;-57
2022/06/27 11:01:12;;;;;;;0.77;0.40;;;14.20;99.90;;;;;;5110322;28;20035;-57
2022/06/27 11:03:40;;;;;;;0.98;0.50;;;14.20;99.90;;;;;;5108906;28;20042;-56
2022/06/27 11:06:13;;;;;;;4.38;0.60;;;14.10;99.90;;;;;;5096615;28;20059;-57
2022/06/27 11:08:52;;;;;;;1.73;0.65;;;14.10;99.90;;;;;;5092187;28;20050;-56
2022/06/27 11:11:25;;;;;;;2.03;0.60;;;14.10;99.90;;;;;;5091913;28;20048;-56
2022/06/27 11:13:55;;;;;;;6.05;0.80;;;14.00;99.90;;;;;;5091454;28;20056;-56
2022/06/27 11:16:24;;;;;;;;;;;13.80;99.90;;;;;;5092579;28;20048;-56
2022/06/27 11:18:53;;;;;;;4.85;0.47;;;13.70;99.90;;;;;;5092282;28;19927;-57
2022/06/27 11:21:23;;;;;;;3.20;0.80;;;13.60;99.90;;;;;;5091494;28;20059;-56
2022/06/27 11:23:52;;;;;;;;;;;13.60;99.90;;;;;;5112482;28;20052;-58
2022/06/27 11:26:22;;;;;;;3.35;0.70;;;13.60;99.90;;;;;;5111944;28;19919;-57
2022/06/27 11:34:29;;;;;;;2.45;0.63;;;13.40;99.90;;;;;;5092366;28;20040;-58
2022/06/27 11:36:58;;;;;;;1.50;0.45;;;13.40;99.90;;;;;;5095468;28;20044;-56
2022/06/27 11:39:33;;;;;;;1.85;0.47;;;13.40;99.90;;;;;;5093070;28;20051;-57
2022/06/27 11:42:12;;;;;;;2.47;0.85;;;13.60;99.90;;;;;;5106516;28;20066;-58
2022/06/27 11:45:12;;;;;;;5.88;0.80;;;13.70;99.90;;;;;;5092823;28;20391;-57
2022/06/27 11:47:41;;;;;;;2.45;0.70;;;14.00;99.90;;;;;;5090610;28;20044;-57
2022/06/27 11:50:15;;;;;;;5.70;0.80;;;14.20;99.90;;;;;;5093017;28;20052;-56
2022/06/27 11:52:45;;;;;;;0.70;0.50;;;14.50;99.90;;;;;;5095987;28;20047;-56
2022/06/27 11:55:18;;;;;;;3.90;0.52;;;14.80;99.90;;;;;;5108015;28;20039;-55
2022/06/27 11:57:51;;;;;;;2.22;1.15;;;15.10;99.90;;;;;;5101998;28;20056;-56
2022/06/27 12:00:22;;;;;;;3.40;0.70;;;15.40;99.90;;;;;;5098173;28;20054;-56
2022/06/27 12:03:11;;;;;;;2.17;0.60;;;15.80;99.90;;;;;;5099818;28;20044;-55
2022/06/27 12:05:42;;;;;;;6.87;0.77;;;16.10;99.90;;;;;;5107663;28;20055;-57
2022/06/27 12:08:11;;;;;;;6.03;0.90;;;16.40;99.90;;;;;;5090863;28;20578;-58
2022/06/27 12:13:39;;;;;;;8.52;0.90;;;16.70;99.90;;;;;;5110772;28;20059;-55
2022/06/27 12:16:09;;;;;;;;;;;16.70;99.90;;;;;;5110564;28;20490;-58
2022/06/27 12:18:41;;;;;;;4.28;0.98;;;16.80;99.90;;;;;;5106762;28;20395;-56
2022/06/27 12:21:10;;;;;;;2.60;0.68;;;16.40;99.90;;;;;;5108618;28;20039;-58
2022/06/27 12:23:38;;;;;;;4.13;0.88;;;16.30;99.90;;;;;;5110881;28;20047;-57
2022/06/27 12:26:06;;;;;;;3.60;0.45;;;16.20;99.90;;;;;;5110908;28;20051;-58
2022/06/27 12:28:34;;;;;;;4.18;0.57;;;16.60;99.90;;;;;;5098305;28;20055;-58
2022/06/27 12:31:02;;;;;;;3.50;0.73;;;17.20;99.90;;;;;;5103075;28;20491;-58
2022/06/27 12:33:30;;;;;;;1.75;0.50;;;17.90;99.90;;;;;;5110620;28;20043;-58
2022/06/27 12:35:57;;;;;;;2.40;0.47;;;18.50;99.90;;;;;;5107753;28;20043;-58
2022/06/27 12:38:25;;;;;;;2.85;0.68;;;18.80;99.90;;;;;;5090314;28;20510;-58
2022/06/27 12:41:11;;;;;;;2.50;0.70;;;18.80;99.50;;;;;;5089249;28;20044;-58
2022/06/27 12:43:47;;;;;;;5.93;0.90;;;18.60;98.40;;;;;;5099896;28;20048;-58
2022/06/27 12:46:17;;;;;;;2.67;0.80;;;18.60;99.30;;;;;;5109814;28;20050;-59
2022/06/27 12:48:45;;;;;;;;;;;18.80;99.90;;;;;;5097418;28;20494;-58
2022/06/27 12:51:13;;;;;;;7.40;0.90;;;19.00;95.50;;;;;;5090685;28;19927;-58
2022/06/27 12:53:41;;;;;;;5.43;1.13;;;19.20;95.80;;;;;;5089647;28;20051;-58
2022/06/27 12:56:09;;;;;;;10.00;0.77;;;19.50;94.50;;;;;;5103220;28;20039;-58
2022/06/27 12:58:37;;;;;;;5.40;0.50;;;19.90;95.50;;;;;;5099219;28;20051;-58
2022/06/27 13:01:05;;;;;;;4.82;0.77;;;20.40;94.30;;;;;;5093982;28;20047;-58
2022/06/27 13:03:34;;;;;;;8.70;0.50;;;20.90;90.10;;;;;;5089661;28;20048;-59
2022/06/27 13:06:02;;;;;;;4.57;0.70;;;21.30;90.80;;;;;;5089255;28;20055;-58
2022/06/27 13:08:30;;;;;;;3.42;0.70;;;21.40;87.90;;;;;;5100712;28;20391;-58
2022/06/27 13:10:57;;;;;;;6.13;0.70;;;21.30;87.90;;;;;;5109170;28;20043;-57
2022/06/27 13:13:25;;;;;;;3.35;0.50;;;20.90;86.20;;;;;;5092079;28;20052;-58
2022/06/27 13:15:53;;;;;;;4.70;1.27;;;20.40;86.40;;;;;;5092165;28;20051;-58
2022/06/27 13:18:21;;;;;;;3.47;0.50;;;20.10;90.00;;;;;;5090202;28;20055;-58
2022/06/27 13:20:48;;;;;;;3.53;0.52;;;20.10;92.00;;;;;;5089852;28;20048;-58
2022/06/27 13:23:16;;;;;;;3.00;0.55;;;20.50;93.10;;;;;;5090264;28;20427;-56